sensor_id;sensor_type;location;lat;lon;timestamp;P1;durP1;ratioP1;P2;durP2;ratioP2
17714;SDS011;8977;50.902;4.314;2023-04-06T00:00:26;13.43;;;10.13;;
17714;SDS011;8977;50.902;4.314;2023-04-06T00:02:53;14.63;;;11.07;;
17714;SDS011;8977;50.902;4.314;2023-04-06T00:05:20;16.20;;;11.03;;
17714;SDS011;8977;50.902;4.314;2023-04-06T00:07:49;16.07;;;11.30;;
17714;SDS011;8977;50.902;4.314;2023-04-06T00:10:17;14.80;;;10.57;;
17714;SDS011;8977;50.902;4.314;2023-04-06T00:12:44;14.50;;;10.73;;
17714;SDS011;8977;50.902;4.314;2023-04-06T00:15:11;15.77;;;11.13;;
17714;SDS011;8977;50.902;4.314;2023-04-06T00:17:38;16.37;;;10.83;;
17714;SDS011;8977;50.902;4.314;2023-04-06T00:20:06;15.57;;;10.63;;
17714;SDS011;8977;50.902;4.314;2023-04-06T00:22:33;15.67;;;11.07;;
17714;SDS011;8977;50.902;4.314;2023-04-06T00:25:02;19.63;;;11.17;;
17714;SDS011;8977;50.902;4.314;2023-04-06T00:27:29;15.47;;;11.23;;
17714;SDS011;8977;50.902;4.314;2023-04-06T00:29:56;16.30;;;11.10;;
17714;SDS011;8977;50.902;4.314;2023-04-06T00:32:23;17.77;;;11.53;;
17714;SDS011;8977;50.902;4.314;2023-04-06T00:34:50;18.27;;;11.07;;
17714;SDS011;8977;50.902;4.314;2023-04-06T00:37:17;15.57;;;11.80;;
17714;SDS011;8977;50.902;4.314;2023-04-06T00:39:44;17.47;;;11.40;;
17714;SDS011;8977;50.902;4.314;2023-04-06T00:42:13;15.67;;;11.37;;
17714;SDS011;8977;50.902;4.314;2023-04-06T00:44:40;18.23;;;11.30;;
17714;SDS011;8977;50.902;4.314;2023-04-06T00:47:07;16.77;;;10.53;;
17714;SDS011;8977;50.902;4.314;2023-04-06T00:49:34;19.37;;;11.40;;
17714;SDS011;8977;50.902;4.314;2023-04-06T00:52:01;16.37;;;11.17;;
17714;SDS011;8977;50.902;4.314;2023-04-06T00:54:28;14.00;;;10.73;;
17714;SDS011;8977;50.902;4.314;2023-04-06T00:56:56;16.33;;;10.93;;
17714;SDS011;8977;50.902;4.314;2023-04-06T00:59:25;15.47;;;11.17;;
17714;SDS011;8977;50.902;4.314;2023-04-06T01:01:54;17.00;;;12.00;;
17714;SDS011;8977;50.902;4.314;2023-04-06T01:04:21;21.57;;;12.30;;
17714;SDS011;8977;50.902;4.314;2023-04-06T01:06:48;16.63;;;11.33;;
17714;SDS011;8977;50.902;4.314;2023-04-06T01:09:15;17.77;;;12.37;;
17714;SDS011;8977;50.902;4.314;2023-04-06T01:11:43;16.17;;;11.63;;
17714;SDS011;8977;50.902;4.314;2023-04-06T01:14:10;16.10;;;11.20;;
17714;SDS011;8977;50.902;4.314;2023-04-06T01:16:40;15.83;;;11.97;;
17714;SDS011;8977;50.902;4.314;2023-04-06T01:19:08;16.37;;;10.97;;
17714;SDS011;8977;50.902;4.314;2023-04-06T01:21:35;15.57;;;11.40;;
17714;SDS011;8977;50.902;4.314;2023-04-06T01:24:04;15.67;;;11.47;;
17714;SDS011;8977;50.902;4.314;2023-04-06T01:26:32;14.77;;;11.50;;
17714;SDS011;8977;50.902;4.314;2023-04-06T01:29:00;15.83;;;11.63;;
17714;SDS011;8977;50.902;4.314;2023-04-06T01:31:28;15.47;;;11.17;;
17714;SDS011;8977;50.902;4.314;2023-04-06T01:33:55;20.93;;;12.30;;
17714;SDS011;8977;50.902;4.314;2023-04-06T01:36:22;18.97;;;11.77;;
17714;SDS011;8977;50.902;4.314;2023-04-06T01:38:49;17.27;;;11.60;;
17714;SDS011;8977;50.902;4.314;2023-04-06T01:41:17;17.23;;;11.83;;
17714;SDS011;8977;50.902;4.314;2023-04-06T01:43:44;16.60;;;12.00;;
17714;SDS011;8977;50.902;4.314;2023-04-06T01:46:12;17.37;;;12.40;;
17714;SDS011;8977;50.902;4.314;2023-04-06T01:48:38;16.33;;;11.43;;
17714;SDS011;8977;50.902;4.314;2023-04-06T01:51:06;16.43;;;12.50;;
17714;SDS011;8977;50.902;4.314;2023-04-06T01:53:33;16.33;;;11.53;;
17714;SDS011;8977;50.902;4.314;2023-04-06T01:56:00;15.57;;;11.57;;
17714;SDS011;8977;50.902;4.314;2023-04-06T01:58:29;16.97;;;11.80;;
17714;SDS011;8977;50.902;4.314;2023-04-06T02:00:56;15.37;;;11.47;;
17714;SDS011;8977;50.902;4.314;2023-04-06T02:03:22;15.47;;;12.00;;
17714;SDS011;8977;50.902;4.314;2023-04-06T02:05:49;16.13;;;11.43;;
17714;SDS011;8977;50.902;4.314;2023-04-06T02:08:16;14.83;;;11.37;;
17714;SDS011;8977;50.902;4.314;2023-04-06T02:10:43;15.70;;;11.80;;
17714;SDS011;8977;50.902;4.314;2023-04-06T02:13:10;18.17;;;11.53;;
17714;SDS011;8977;50.902;4.314;2023-04-06T02:15:39;16.17;;;11.40;;
17714;SDS011;8977;50.902;4.314;2023-04-06T02:18:06;16.30;;;11.80;;
17714;SDS011;8977;50.902;4.314;2023-04-06T02:20:33;15.53;;;11.23;;
17714;SDS011;8977;50.902;4.314;2023-04-06T02:22:59;18.83;;;12.07;;
17714;SDS011;8977;50.902;4.314;2023-04-06T02:25:26;14.13;;;11.53;;
17714;SDS011;8977;50.902;4.314;2023-04-06T02:27:53;15.00;;;11.10;;
17714;SDS011;8977;50.902;4.314;2023-04-06T02:30:21;15.87;;;11.50;;
17714;SDS011;8977;50.902;4.314;2023-04-06T02:32:49;20.47;;;12.23;;
17714;SDS011;8977;50.902;4.314;2023-04-06T02:35:16;16.07;;;11.63;;
17714;SDS011;8977;50.902;4.314;2023-04-06T02:37:43;19.47;;;11.60;;
17714;SDS011;8977;50.902;4.314;2023-04-06T02:40:10;15.17;;;11.40;;
17714;SDS011;8977;50.902;4.314;2023-04-06T02:42:37;15.97;;;11.30;;
17714;SDS011;8977;50.902;4.314;2023-04-06T02:45:04;15.43;;;11.50;;
17714;SDS011;8977;50.902;4.314;2023-04-06T02:47:32;18.13;;;11.77;;
17714;SDS011;8977;50.902;4.314;2023-04-06T02:50:01;16.10;;;11.63;;
17714;SDS011;8977;50.902;4.314;2023-04-06T02:52:28;16.17;;;10.93;;
17714;SDS011;8977;50.902;4.314;2023-04-06T02:54:55;14.83;;;10.80;;
17714;SDS011;8977;50.902;4.314;2023-04-06T02:57:22;15.23;;;11.30;;
17714;SDS011;8977;50.902;4.314;2023-04-06T02:59:49;14.73;;;11.60;;
17714;SDS011;8977;50.902;4.314;2023-04-06T03:02:16;18.13;;;11.63;;
17714;SDS011;8977;50.902;4.314;2023-04-06T03:04:43;15.90;;;11.13;;
17714;SDS011;8977;50.902;4.314;2023-04-06T03:07:12;14.87;;;11.60;;
17714;SDS011;8977;50.902;4.314;2023-04-06T03:09:38;18.97;;;12.53;;
17714;SDS011;8977;50.902;4.314;2023-04-06T03:12:06;17.33;;;12.23;;
17714;SDS011;8977;50.902;4.314;2023-04-06T03:14:33;16.80;;;11.60;;
17714;SDS011;8977;50.902;4.314;2023-04-06T03:17:00;16.27;;;12.33;;
17714;SDS011;8977;50.902;4.314;2023-04-06T03:19:27;15.90;;;11.97;;
17714;SDS011;8977;50.902;4.314;2023-04-06T03:21:54;18.57;;;11.47;;
17714;SDS011;8977;50.902;4.314;2023-04-06T03:24:23;18.53;;;12.47;;
17714;SDS011;8977;50.902;4.314;2023-04-06T03:26:51;17.07;;;11.13;;
17714;SDS011;8977;50.902;4.314;2023-04-06T03:29:18;15.63;;;12.13;;
17714;SDS011;8977;50.902;4.314;2023-04-06T03:31:45;18.03;;;12.30;;
17714;SDS011;8977;50.902;4.314;2023-04-06T03:34:12;16.53;;;12.03;;
17714;SDS011;8977;50.902;4.314;2023-04-06T03:36:38;17.07;;;12.63;;
17714;SDS011;8977;50.902;4.314;2023-04-06T03:39:05;15.60;;;11.00;;
17714;SDS011;8977;50.902;4.314;2023-04-06T03:41:34;16.60;;;12.07;;
17714;SDS011;8977;50.902;4.314;2023-04-06T03:44:01;15.90;;;11.90;;
17714;SDS011;8977;50.902;4.314;2023-04-06T03:46:28;17.43;;;12.30;;
17714;SDS011;8977;50.902;4.314;2023-04-06T03:48:55;14.70;;;11.80;;
17714;SDS011;8977;50.902;4.314;2023-04-06T03:51:22;15.07;;;12.30;;
17714;SDS011;8977;50.902;4.314;2023-04-06T03:53:48;16.70;;;12.53;;
17714;SDS011;8977;50.902;4.314;2023-04-06T03:56:16;15.37;;;11.73;;
17714;SDS011;8977;50.902;4.314;2023-04-06T03:58:44;15.73;;;12.10;;
17714;SDS011;8977;50.902;4.314;2023-04-06T04:01:15;21.87;;;12.70;;
17714;SDS011;8977;50.902;4.314;2023-04-06T04:03:42;17.57;;;11.97;;
17714;SDS011;8977;50.902;4.314;2023-04-06T04:06:09;15.87;;;12.67;;
17714;SDS011;8977;50.902;4.314;2023-04-06T04:08:36;16.00;;;12.47;;
17714;SDS011;8977;50.902;4.314;2023-04-06T04:11:03;15.67;;;12.33;;
17714;SDS011;8977;50.902;4.314;2023-04-06T04:13:30;18.60;;;13.23;;
17714;SDS011;8977;50.902;4.314;2023-04-06T04:15:58;15.50;;;12.33;;
17714;SDS011;8977;50.902;4.314;2023-04-06T04:18:26;15.67;;;12.87;;
17714;SDS011;8977;50.902;4.314;2023-04-06T04:20:52;17.67;;;12.17;;
17714;SDS011;8977;50.902;4.314;2023-04-06T04:23:19;16.93;;;12.70;;
17714;SDS011;8977;50.902;4.314;2023-04-06T04:25:46;17.07;;;13.10;;
17714;SDS011;8977;50.902;4.314;2023-04-06T04:28:13;15.20;;;12.43;;
17714;SDS011;8977;50.902;4.314;2023-04-06T04:30:40;19.23;;;12.80;;
17714;SDS011;8977;50.902;4.314;2023-04-06T04:33:08;16.37;;;13.60;;
17714;SDS011;8977;50.902;4.314;2023-04-06T04:35:35;20.97;;;13.30;;
17714;SDS011;8977;50.902;4.314;2023-04-06T04:38:02;17.70;;;13.57;;
17714;SDS011;8977;50.902;4.314;2023-04-06T04:40:30;19.17;;;13.80;;
17714;SDS011;8977;50.902;4.314;2023-04-06T04:42:57;18.87;;;13.57;;
17714;SDS011;8977;50.902;4.314;2023-04-06T04:45:24;17.97;;;13.63;;
17714;SDS011;8977;50.902;4.314;2023-04-06T04:47:51;18.90;;;13.47;;
17714;SDS011;8977;50.902;4.314;2023-04-06T04:50:19;19.37;;;13.23;;
17714;SDS011;8977;50.902;4.314;2023-04-06T04:52:46;15.10;;;12.97;;
17714;SDS011;8977;50.902;4.314;2023-04-06T04:55:13;18.80;;;13.27;;
17714;SDS011;8977;50.902;4.314;2023-04-06T04:57:40;15.93;;;13.00;;
17714;SDS011;8977;50.902;4.314;2023-04-06T05:00:07;19.60;;;14.37;;
17714;SDS011;8977;50.902;4.314;2023-04-06T05:02:35;21.47;;;14.73;;
17714;SDS011;8977;50.902;4.314;2023-04-06T05:05:01;18.53;;;14.43;;
17714;SDS011;8977;50.902;4.314;2023-04-06T05:07:30;17.27;;;13.37;;
17714;SDS011;8977;50.902;4.314;2023-04-06T05:09:57;16.57;;;13.13;;
17714;SDS011;8977;50.902;4.314;2023-04-06T05:12:24;16.73;;;13.60;;
17714;SDS011;8977;50.902;4.314;2023-04-06T05:14:52;21.83;;;14.33;;
17714;SDS011;8977;50.902;4.314;2023-04-06T05:17:19;18.63;;;14.33;;
17714;SDS011;8977;50.902;4.314;2023-04-06T05:19:46;19.23;;;15.37;;
17714;SDS011;8977;50.902;4.314;2023-04-06T05:22:13;17.63;;;14.67;;
17714;SDS011;8977;50.902;4.314;2023-04-06T05:24:44;18.73;;;14.00;;
17714;SDS011;8977;50.902;4.314;2023-04-06T05:27:11;19.70;;;15.17;;
17714;SDS011;8977;50.902;4.314;2023-04-06T05:29:38;17.60;;;14.07;;
17714;SDS011;8977;50.902;4.314;2023-04-06T05:32:06;19.43;;;14.13;;
17714;SDS011;8977;50.902;4.314;2023-04-06T05:34:33;19.10;;;14.23;;
17714;SDS011;8977;50.902;4.314;2023-04-06T05:37:00;18.57;;;14.00;;
17714;SDS011;8977;50.902;4.314;2023-04-06T05:39:27;21.53;;;15.37;;
17714;SDS011;8977;50.902;4.314;2023-04-06T05:41:55;20.23;;;14.43;;
17714;SDS011;8977;50.902;4.314;2023-04-06T05:44:22;21.83;;;15.57;;
17714;SDS011;8977;50.902;4.314;2023-04-06T05:46:49;18.53;;;14.17;;
17714;SDS011;8977;50.902;4.314;2023-04-06T05:49:16;21.40;;;14.90;;
17714;SDS011;8977;50.902;4.314;2023-04-06T05:51:43;20.80;;;15.37;;
17714;SDS011;8977;50.902;4.314;2023-04-06T05:54:10;20.50;;;14.33;;
17714;SDS011;8977;50.902;4.314;2023-04-06T05:56:37;22.03;;;14.97;;
17714;SDS011;8977;50.902;4.314;2023-04-06T05:59:05;17.80;;;14.63;;
17714;SDS011;8977;50.902;4.314;2023-04-06T06:01:32;20.40;;;15.33;;
17714;SDS011;8977;50.902;4.314;2023-04-06T06:04:00;20.33;;;15.87;;
17714;SDS011;8977;50.902;4.314;2023-04-06T06:06:27;19.47;;;15.20;;
17714;SDS011;8977;50.902;4.314;2023-04-06T06:08:57;20.43;;;15.47;;
17714;SDS011;8977;50.902;4.314;2023-04-06T06:11:25;19.53;;;14.90;;
17714;SDS011;8977;50.902;4.314;2023-04-06T06:13:52;20.97;;;15.60;;
17714;SDS011;8977;50.902;4.314;2023-04-06T06:16:21;20.33;;;15.40;;
17714;SDS011;8977;50.902;4.314;2023-04-06T06:18:48;21.60;;;15.63;;
17714;SDS011;8977;50.902;4.314;2023-04-06T06:21:15;19.23;;;15.50;;
17714;SDS011;8977;50.902;4.314;2023-04-06T06:23:42;22.10;;;16.07;;
17714;SDS011;8977;50.902;4.314;2023-04-06T06:26:09;21.57;;;16.20;;
17714;SDS011;8977;50.902;4.314;2023-04-06T06:28:37;21.27;;;16.07;;
17714;SDS011;8977;50.902;4.314;2023-04-06T06:31:04;19.60;;;14.83;;
17714;SDS011;8977;50.902;4.314;2023-04-06T06:33:32;20.07;;;15.67;;
17714;SDS011;8977;50.902;4.314;2023-04-06T06:35:59;21.40;;;15.07;;
17714;SDS011;8977;50.902;4.314;2023-04-06T06:38:26;19.80;;;14.90;;
17714;SDS011;8977;50.902;4.314;2023-04-06T06:40:53;20.63;;;15.00;;
17714;SDS011;8977;50.902;4.314;2023-04-06T06:43:20;20.57;;;14.70;;
17714;SDS011;8977;50.902;4.314;2023-04-06T06:45:47;19.40;;;15.37;;
17714;SDS011;8977;50.902;4.314;2023-04-06T06:48:14;20.37;;;15.20;;
17714;SDS011;8977;50.902;4.314;2023-04-06T06:50:42;18.10;;;14.47;;
17714;SDS011;8977;50.902;4.314;2023-04-06T06:53:09;20.27;;;15.30;;
17714;SDS011;8977;50.902;4.314;2023-04-06T06:55:36;19.87;;;15.57;;
17714;SDS011;8977;50.902;4.314;2023-04-06T06:58:03;18.80;;;15.67;;
17714;SDS011;8977;50.902;4.314;2023-04-06T07:00:31;16.90;;;14.83;;
17714;SDS011;8977;50.902;4.314;2023-04-06T07:02:58;19.00;;;15.27;;
17714;SDS011;8977;50.902;4.314;2023-04-06T07:05:25;19.77;;;15.53;;
17714;SDS011;8977;50.902;4.314;2023-04-06T07:07:53;18.37;;;15.30;;
17714;SDS011;8977;50.902;4.314;2023-04-06T07:10:21;22.30;;;14.90;;
17714;SDS011;8977;50.902;4.314;2023-04-06T07:12:48;19.83;;;15.30;;
17714;SDS011;8977;50.902;4.314;2023-04-06T07:15:15;19.70;;;14.40;;
17714;SDS011;8977;50.902;4.314;2023-04-06T07:17:43;20.03;;;14.50;;
17714;SDS011;8977;50.902;4.314;2023-04-06T07:20:10;18.50;;;14.63;;
17714;SDS011;8977;50.902;4.314;2023-04-06T07:22:38;18.40;;;14.47;;
17714;SDS011;8977;50.902;4.314;2023-04-06T07:25:07;18.37;;;14.67;;
17714;SDS011;8977;50.902;4.314;2023-04-06T07:27:34;20.63;;;13.70;;
17714;SDS011;8977;50.902;4.314;2023-04-06T07:30:01;16.40;;;13.37;;
17714;SDS011;8977;50.902;4.314;2023-04-06T07:32:29;16.03;;;12.50;;
17714;SDS011;8977;50.902;4.314;2023-04-06T07:34:56;15.53;;;12.47;;
17714;SDS011;8977;50.902;4.314;2023-04-06T07:37:23;19.30;;;14.03;;
17714;SDS011;8977;50.902;4.314;2023-04-06T07:39:50;18.53;;;13.20;;
17714;SDS011;8977;50.902;4.314;2023-04-06T07:42:18;18.60;;;12.63;;
17714;SDS011;8977;50.902;4.314;2023-04-06T07:44:45;17.20;;;11.67;;
17714;SDS011;8977;50.902;4.314;2023-04-06T07:47:12;17.35;;;13.65;;
17714;SDS011;8977;50.902;4.314;2023-04-06T07:49:39;14.30;;;11.20;;
17714;SDS011;8977;50.902;4.314;2023-04-06T07:52:06;16.67;;;11.30;;
17714;SDS011;8977;50.902;4.314;2023-04-06T07:54:33;18.53;;;10.57;;
17714;SDS011;8977;50.902;4.314;2023-04-06T07:57:00;12.20;;;9.30;;
17714;SDS011;8977;50.902;4.314;2023-04-06T07:59:28;11.57;;;9.10;;
17714;SDS011;8977;50.902;4.314;2023-04-06T08:01:55;10.40;;;7.70;;
17714;SDS011;8977;50.902;4.314;2023-04-06T08:04:22;13.07;;;8.80;;
17714;SDS011;8977;50.902;4.314;2023-04-06T08:06:49;11.07;;;8.53;;
17714;SDS011;8977;50.902;4.314;2023-04-06T08:09:16;11.83;;;7.43;;
17714;SDS011;8977;50.902;4.314;2023-04-06T08:11:43;10.03;;;7.63;;
17714;SDS011;8977;50.902;4.314;2023-04-06T08:14:11;9.50;;;7.57;;
17714;SDS011;8977;50.902;4.314;2023-04-06T08:16:39;11.47;;;7.17;;
17714;SDS011;8977;50.902;4.314;2023-04-06T08:19:06;9.43;;;7.23;;
17714;SDS011;8977;50.902;4.314;2023-04-06T08:21:34;11.67;;;7.30;;
17714;SDS011;8977;50.902;4.314;2023-04-06T08:24:01;10.57;;;6.87;;
17714;SDS011;8977;50.902;4.314;2023-04-06T08:26:28;8.90;;;7.33;;
17714;SDS011;8977;50.902;4.314;2023-04-06T08:28:55;10.33;;;8.13;;
17714;SDS011;8977;50.902;4.314;2023-04-06T08:31:22;10.23;;;6.93;;
17714;SDS011;8977;50.902;4.314;2023-04-06T08:33:50;8.43;;;7.20;;
17714;SDS011;8977;50.902;4.314;2023-04-06T08:36:18;10.10;;;7.00;;
17714;SDS011;8977;50.902;4.314;2023-04-06T08:38:47;10.37;;;7.23;;
17714;SDS011;8977;50.902;4.314;2023-04-06T08:41:15;9.73;;;7.07;;
17714;SDS011;8977;50.902;4.314;2023-04-06T08:43:43;10.63;;;7.30;;
17714;SDS011;8977;50.902;4.314;2023-04-06T08:46:12;9.93;;;7.37;;
17714;SDS011;8977;50.902;4.314;2023-04-06T08:48:41;10.07;;;7.57;;
17714;SDS011;8977;50.902;4.314;2023-04-06T08:51:11;9.80;;;7.03;;
17714;SDS011;8977;50.902;4.314;2023-04-06T08:53:38;8.70;;;7.77;;
17714;SDS011;8977;50.902;4.314;2023-04-06T08:56:05;9.20;;;7.00;;
17714;SDS011;8977;50.902;4.314;2023-04-06T08:58:35;10.30;;;7.57;;
17714;SDS011;8977;50.902;4.314;2023-04-06T09:01:06;8.87;;;7.30;;
17714;SDS011;8977;50.902;4.314;2023-04-06T09:03:35;10.30;;;7.53;;
17714;SDS011;8977;50.902;4.314;2023-04-06T09:06:04;12.80;;;7.97;;
17714;SDS011;8977;50.902;4.314;2023-04-06T09:08:34;11.90;;;7.70;;
17714;SDS011;8977;50.902;4.314;2023-04-06T09:11:01;16.80;;;8.93;;
17714;SDS011;8977;50.902;4.314;2023-04-06T09:13:29;10.83;;;8.17;;
17714;SDS011;8977;50.902;4.314;2023-04-06T09:15:59;10.70;;;8.13;;
17714;SDS011;8977;50.902;4.314;2023-04-06T09:18:30;10.93;;;8.67;;
17714;SDS011;8977;50.902;4.314;2023-04-06T09:20:58;11.43;;;8.50;;
17714;SDS011;8977;50.902;4.314;2023-04-06T09:23:26;11.00;;;8.80;;
17714;SDS011;8977;50.902;4.314;2023-04-06T09:26:05;10.97;;;8.03;;
17714;SDS011;8977;50.902;4.314;2023-04-06T09:28:43;10.83;;;8.67;;
17714;SDS011;8977;50.902;4.314;2023-04-06T09:31:11;14.00;;;9.50;;
17714;SDS011;8977;50.902;4.314;2023-04-06T09:33:40;12.20;;;9.30;;
17714;SDS011;8977;50.902;4.314;2023-04-06T09:36:08;12.33;;;9.10;;
17714;SDS011;8977;50.902;4.314;2023-04-06T09:38:36;10.73;;;8.63;;
17714;SDS011;8977;50.902;4.314;2023-04-06T09:41:05;11.40;;;8.17;;
17714;SDS011;8977;50.902;4.314;2023-04-06T09:43:32;11.10;;;8.53;;
17714;SDS011;8977;50.902;4.314;2023-04-06T09:46:00;11.97;;;8.80;;
17714;SDS011;8977;50.902;4.314;2023-04-06T09:48:29;12.20;;;8.07;;
17714;SDS011;8977;50.902;4.314;2023-04-06T09:51:01;10.23;;;7.97;;
17714;SDS011;8977;50.902;4.314;2023-04-06T09:53:31;10.37;;;8.53;;
17714;SDS011;8977;50.902;4.314;2023-04-06T09:56:02;9.97;;;7.80;;
17714;SDS011;8977;50.902;4.314;2023-04-06T09:58:33;11.57;;;8.23;;
17714;SDS011;8977;50.902;4.314;2023-04-06T10:01:03;10.77;;;8.43;;
17714;SDS011;8977;50.902;4.314;2023-04-06T10:03:34;10.57;;;8.40;;
17714;SDS011;8977;50.902;4.314;2023-04-06T10:06:08;11.30;;;8.37;;
17714;SDS011;8977;50.902;4.314;2023-04-06T10:08:38;12.97;;;8.30;;
17714;SDS011;8977;50.902;4.314;2023-04-06T10:11:07;11.40;;;8.37;;
17714;SDS011;8977;50.902;4.314;2023-04-06T10:13:36;10.53;;;8.17;;
17714;SDS011;8977;50.902;4.314;2023-04-06T10:16:03;9.53;;;7.90;;
17714;SDS011;8977;50.902;4.314;2023-04-06T10:18:32;13.30;;;9.17;;
17714;SDS011;8977;50.902;4.314;2023-04-06T10:21:00;10.57;;;7.77;;
17714;SDS011;8977;50.902;4.314;2023-04-06T10:23:32;11.20;;;7.70;;
17714;SDS011;8977;50.902;4.314;2023-04-06T10:26:01;10.63;;;7.87;;
17714;SDS011;8977;50.902;4.314;2023-04-06T10:28:30;9.90;;;7.93;;
17714;SDS011;8977;50.902;4.314;2023-04-06T10:31:01;10.23;;;7.93;;
17714;SDS011;8977;50.902;4.314;2023-04-06T10:33:30;9.53;;;7.73;;
17714;SDS011;8977;50.902;4.314;2023-04-06T10:35:57;10.13;;;8.13;;
17714;SDS011;8977;50.902;4.314;2023-04-06T10:38:36;11.33;;;8.63;;
17714;SDS011;8977;50.902;4.314;2023-04-06T10:41:04;11.27;;;8.17;;
17714;SDS011;8977;50.902;4.314;2023-04-06T10:43:33;11.97;;;8.00;;
17714;SDS011;8977;50.902;4.314;2023-04-06T10:46:04;10.07;;;8.83;;
17714;SDS011;8977;50.902;4.314;2023-04-06T10:48:37;10.30;;;8.67;;
17714;SDS011;8977;50.902;4.314;2023-04-06T10:51:09;8.47;;;7.43;;
17714;SDS011;8977;50.902;4.314;2023-04-06T10:53:37;11.60;;;8.17;;
17714;SDS011;8977;50.902;4.314;2023-04-06T10:56:09;8.77;;;7.87;;
17714;SDS011;8977;50.902;4.314;2023-04-06T10:58:37;11.93;;;8.83;;
17714;SDS011;8977;50.902;4.314;2023-04-06T11:01:05;10.60;;;8.73;;
17714;SDS011;8977;50.902;4.314;2023-04-06T11:03:41;10.27;;;8.70;;
17714;SDS011;8977;50.902;4.314;2023-04-06T11:06:10;10.93;;;8.60;;
17714;SDS011;8977;50.902;4.314;2023-04-06T11:08:37;11.27;;;8.90;;
17714;SDS011;8977;50.902;4.314;2023-04-06T11:11:05;11.57;;;9.13;;
17714;SDS011;8977;50.902;4.314;2023-04-06T11:13:40;11.13;;;8.83;;
17714;SDS011;8977;50.902;4.314;2023-04-06T11:16:13;13.97;;;9.30;;
17714;SDS011;8977;50.902;4.314;2023-04-06T11:18:51;11.60;;;9.40;;
17714;SDS011;8977;50.902;4.314;2023-04-06T11:21:20;12.73;;;9.97;;
17714;SDS011;8977;50.902;4.314;2023-04-06T11:24:03;10.47;;;9.33;;
17714;SDS011;8977;50.902;4.314;2023-04-06T11:26:31;14.30;;;9.27;;
17714;SDS011;8977;50.902;4.314;2023-04-06T11:29:02;11.33;;;8.70;;
17714;SDS011;8977;50.902;4.314;2023-04-06T11:31:31;11.20;;;9.53;;
17714;SDS011;8977;50.902;4.314;2023-04-06T11:34:08;12.03;;;10.40;;
17714;SDS011;8977;50.902;4.314;2023-04-06T11:36:36;12.30;;;10.30;;
17714;SDS011;8977;50.902;4.314;2023-04-06T11:39:06;12.13;;;9.33;;
17714;SDS011;8977;50.902;4.314;2023-04-06T11:41:33;13.43;;;9.93;;
17714;SDS011;8977;50.902;4.314;2023-04-06T11:44:01;11.37;;;9.67;;
17714;SDS011;8977;50.902;4.314;2023-04-06T11:46:28;12.10;;;9.70;;
17714;SDS011;8977;50.902;4.314;2023-04-06T11:48:57;13.43;;;10.40;;
17714;SDS011;8977;50.902;4.314;2023-04-06T11:51:25;11.50;;;9.60;;
17714;SDS011;8977;50.902;4.314;2023-04-06T11:53:52;10.70;;;9.30;;
17714;SDS011;8977;50.902;4.314;2023-04-06T11:56:26;13.90;;;9.97;;
17714;SDS011;8977;50.902;4.314;2023-04-06T11:58:54;14.63;;;9.97;;
17714;SDS011;8977;50.902;4.314;2023-04-06T12:01:22;12.53;;;10.33;;
17714;SDS011;8977;50.902;4.314;2023-04-06T12:03:51;12.27;;;10.00;;
17714;SDS011;8977;50.902;4.314;2023-04-06T12:06:19;12.30;;;10.50;;
17714;SDS011;8977;50.902;4.314;2023-04-06T12:08:46;12.23;;;10.03;;
17714;SDS011;8977;50.902;4.314;2023-04-06T12:11:13;13.67;;;10.23;;
17714;SDS011;8977;50.902;4.314;2023-04-06T12:13:41;12.60;;;9.90;;
17714;SDS011;8977;50.902;4.314;2023-04-06T12:16:11;12.80;;;10.10;;
17714;SDS011;8977;50.902;4.314;2023-04-06T12:18:38;11.60;;;9.10;;
17714;SDS011;8977;50.902;4.314;2023-04-06T12:21:06;12.37;;;9.70;;
17714;SDS011;8977;50.902;4.314;2023-04-06T12:23:33;11.57;;;9.27;;
17714;SDS011;8977;50.902;4.314;2023-04-06T12:26:00;12.03;;;9.17;;
17714;SDS011;8977;50.902;4.314;2023-04-06T12:28:27;11.47;;;9.73;;
17714;SDS011;8977;50.902;4.314;2023-04-06T12:30:54;10.33;;;9.13;;
17714;SDS011;8977;50.902;4.314;2023-04-06T12:33:21;12.73;;;9.93;;
17714;SDS011;8977;50.902;4.314;2023-04-06T12:35:48;10.80;;;9.67;;
17714;SDS011;8977;50.902;4.314;2023-04-06T12:38:17;11.60;;;9.53;;
17714;SDS011;8977;50.902;4.314;2023-04-06T12:40:45;10.63;;;9.40;;
17714;SDS011;8977;50.902;4.314;2023-04-06T12:43:12;10.63;;;8.77;;
17714;SDS011;8977;50.902;4.314;2023-04-06T12:45:39;11.97;;;9.70;;
17714;SDS011;8977;50.902;4.314;2023-04-06T12:48:07;10.63;;;9.00;;
17714;SDS011;8977;50.902;4.314;2023-04-06T12:50:34;11.07;;;9.37;;
17714;SDS011;8977;50.902;4.314;2023-04-06T12:53:01;9.70;;;8.60;;
17714;SDS011;8977;50.902;4.314;2023-04-06T12:55:30;12.10;;;8.60;;
17714;SDS011;8977;50.902;4.314;2023-04-06T12:58:00;12.20;;;9.47;;
17714;SDS011;8977;50.902;4.314;2023-04-06T13:00:28;10.90;;;9.80;;
17714;SDS011;8977;50.902;4.314;2023-04-06T13:02:55;10.07;;;8.97;;
17714;SDS011;8977;50.902;4.314;2023-04-06T13:05:22;13.23;;;9.93;;
17714;SDS011;8977;50.902;4.314;2023-04-06T13:07:49;10.63;;;9.33;;
17714;SDS011;8977;50.902;4.314;2023-04-06T13:10:16;11.23;;;10.07;;
17714;SDS011;8977;50.902;4.314;2023-04-06T13:12:44;11.30;;;9.23;;
17714;SDS011;8977;50.902;4.314;2023-04-06T13:15:11;11.67;;;10.20;;
17714;SDS011;8977;50.902;4.314;2023-04-06T13:17:38;12.77;;;9.90;;
17714;SDS011;8977;50.902;4.314;2023-04-06T13:20:06;12.20;;;9.87;;
17714;SDS011;8977;50.902;4.314;2023-04-06T13:22:33;13.37;;;10.83;;
17714;SDS011;8977;50.902;4.314;2023-04-06T13:25:00;19.17;;;10.73;;
17714;SDS011;8977;50.902;4.314;2023-04-06T13:27:27;11.67;;;10.13;;
17714;SDS011;8977;50.902;4.314;2023-04-06T13:30:00;11.13;;;9.70;;
17714;SDS011;8977;50.902;4.314;2023-04-06T13:32:27;13.17;;;10.47;;
17714;SDS011;8977;50.902;4.314;2023-04-06T13:34:55;13.07;;;10.90;;
17714;SDS011;8977;50.902;4.314;2023-04-06T13:37:22;14.43;;;11.10;;
17714;SDS011;8977;50.902;4.314;2023-04-06T13:39:49;14.07;;;10.50;;
17714;SDS011;8977;50.902;4.314;2023-04-06T13:42:15;13.33;;;10.83;;
17714;SDS011;8977;50.902;4.314;2023-04-06T13:44:42;13.23;;;10.60;;
17714;SDS011;8977;50.902;4.314;2023-04-06T13:47:13;13.13;;;10.53;;
17714;SDS011;8977;50.902;4.314;2023-04-06T13:49:40;13.60;;;11.07;;
17714;SDS011;8977;50.902;4.314;2023-04-06T13:52:07;12.87;;;11.33;;
17714;SDS011;8977;50.902;4.314;2023-04-06T13:54:35;12.57;;;10.50;;
17714;SDS011;8977;50.902;4.314;2023-04-06T13:57:02;15.07;;;11.37;;
17714;SDS011;8977;50.902;4.314;2023-04-06T13:59:31;10.87;;;9.77;;
17714;SDS011;8977;50.902;4.314;2023-04-06T14:01:59;11.87;;;10.00;;
17714;SDS011;8977;50.902;4.314;2023-04-06T14:04:27;11.80;;;10.60;;
17714;SDS011;8977;50.902;4.314;2023-04-06T14:06:54;16.40;;;10.93;;
17714;SDS011;8977;50.902;4.314;2023-04-06T14:09:21;12.90;;;11.43;;
17714;SDS011;8977;50.902;4.314;2023-04-06T14:11:48;14.23;;;10.60;;
17714;SDS011;8977;50.902;4.314;2023-04-06T14:14:15;13.43;;;11.00;;
17714;SDS011;8977;50.902;4.314;2023-04-06T14:16:42;14.23;;;11.43;;
17714;SDS011;8977;50.902;4.314;2023-04-06T14:19:10;12.00;;;10.60;;
17714;SDS011;8977;50.902;4.314;2023-04-06T14:21:38;11.77;;;10.43;;
17714;SDS011;8977;50.902;4.314;2023-04-06T14:24:06;12.17;;;10.53;;
17714;SDS011;8977;50.902;4.314;2023-04-06T14:26:34;11.67;;;10.50;;
17714;SDS011;8977;50.902;4.314;2023-04-06T14:29:01;13.20;;;11.53;;
17714;SDS011;8977;50.902;4.314;2023-04-06T14:31:29;13.70;;;11.53;;
17714;SDS011;8977;50.902;4.314;2023-04-06T14:33:56;12.47;;;10.93;;
17714;SDS011;8977;50.902;4.314;2023-04-06T14:36:23;12.97;;;11.63;;
17714;SDS011;8977;50.902;4.314;2023-04-06T14:38:53;13.50;;;11.93;;
17714;SDS011;8977;50.902;4.314;2023-04-06T14:41:22;13.77;;;11.77;;
17714;SDS011;8977;50.902;4.314;2023-04-06T14:43:50;13.37;;;11.97;;